createdAt,value
2022-09-07T00:01:15.003Z,14.39
2022-09-07T00:03:43.048Z,14.44
2022-09-07T00:06:13.864Z,14.48
2022-09-07T00:08:43.713Z,14.52
2022-09-07T00:11:16.069Z,14.57
2022-09-07T00:13:45.978Z,14.63
2022-09-07T00:16:17.059Z,14.67
2022-09-07T00:18:46.550Z,14.71
2022-09-07T00:21:16.367Z,14.75
2022-09-07T00:23:45.245Z,14.80
2022-09-07T00:26:16.994Z,14.82
2022-09-07T00:28:45.752Z,14.83
2022-09-07T00:31:18.170Z,14.83
2022-09-07T00:33:46.535Z,14.82
2022-09-07T00:36:14.610Z,14.82
2022-09-07T00:38:42.674Z,14.80
2022-09-07T00:41:11.185Z,14.77
2022-09-07T00:43:43.324Z,14.76
2022-09-07T00:46:16.162Z,14.77
2022-09-07T00:48:50.802Z,14.76
2022-09-07T00:51:25.407Z,14.75
2022-09-07T00:53:59.336Z,14.69
2022-09-07T00:56:32.391Z,14.62
2022-09-07T00:59:02.788Z,14.59
2022-09-07T01:01:31.714Z,14.60
2022-09-07T01:04:01.964Z,14.61
2022-09-07T01:06:32.218Z,14.58
2022-09-07T01:09:04.741Z,14.57
2022-09-07T01:11:35.112Z,14.56
2022-09-07T01:14:07.824Z,14.55
2022-09-07T01:16:53.780Z,14.56
2022-09-07T01:20:00.521Z,14.59
2022-09-07T01:22:52.131Z,14.55
2022-09-07T01:25:38.182Z,14.55
2022-09-07T01:28:13.691Z,14.53
2022-09-07T01:30:49.787Z,14.52
2022-09-07T01:33:33.635Z,14.52
2022-09-07T01:36:11.909Z,14.54
2022-09-07T01:38:44.298Z,14.58
2022-09-07T01:41:19.095Z,14.61
2022-09-07T01:43:54.636Z,14.61
2022-09-07T01:46:29.541Z,14.61
2022-09-07T01:49:03.976Z,14.60
2022-09-07T01:51:35.061Z,14.59
2022-09-07T01:54:11.752Z,14.58
2022-09-07T01:56:43.895Z,14.58
2022-09-07T01:59:20.946Z,14.58
2022-09-07T02:01:54.988Z,14.60
2022-09-07T02:04:27.309Z,14.59
2022-09-07T02:07:01.975Z,14.57
2022-09-07T02:09:34.876Z,14.59
2022-09-07T02:12:09.089Z,14.58
2022-09-07T02:14:43.340Z,14.57
2022-09-07T02:17:17.205Z,14.56
2022-09-07T02:19:51.602Z,14.51
2022-09-07T02:22:27.808Z,14.49
2022-09-07T02:25:00.597Z,14.46
2022-09-07T02:27:34.778Z,14.46
2022-09-07T02:30:04.734Z,14.45
2022-09-07T02:32:32.911Z,14.46
2022-09-07T02:35:01.044Z,14.47
2022-09-07T02:37:30.243Z,14.49
2022-09-07T02:40:00.479Z,14.48
2022-09-07T02:42:30.503Z,14.48
2022-09-07T02:44:58.932Z,14.48
2022-09-07T02:47:37.275Z,14.48
2022-09-07T02:50:22.309Z,14.48
2022-09-07T02:53:01.510Z,14.48
2022-09-07T02:55:43.906Z,14.48
2022-09-07T02:58:24.359Z,14.50
2022-09-07T03:01:02.660Z,14.53
2022-09-07T03:03:43.659Z,14.56
2022-09-07T03:06:23.264Z,14.59
2022-09-07T03:08:55.787Z,14.62
2022-09-07T03:11:26.773Z,14.62
2022-09-07T03:14:12.595Z,14.65
2022-09-07T03:16:40.958Z,14.69
2022-09-07T03:19:10.748Z,14.73
2022-09-07T03:21:38.883Z,14.76
2022-09-07T03:24:07.601Z,14.78
2022-09-07T03:26:39.728Z,14.80
2022-09-07T03:29:08.057Z,14.82
2022-09-07T03:31:36.818Z,14.82
2022-09-07T03:34:06.252Z,14.81
2022-09-07T03:36:35.972Z,14.83
2022-09-07T03:39:04.956Z,14.82
2022-09-07T03:41:32.987Z,14.81
2022-09-07T03:44:04.599Z,14.78
2022-09-07T03:46:33.032Z,14.78
2022-09-07T03:49:01.223Z,14.75
2022-09-07T03:51:29.405Z,14.73
2022-09-07T03:54:01.018Z,14.72
2022-09-07T03:56:29.076Z,14.71
2022-09-07T03:58:57.183Z,14.71
2022-09-07T04:01:27.245Z,14.71
2022-09-07T04:04:02.221Z,14.73
2022-09-07T04:06:31.225Z,14.72
2022-09-07T04:09:03.169Z,14.72
2022-09-07T04:11:31.731Z,14.71
2022-09-07T04:14:00.064Z,14.69
2022-09-07T04:16:29.443Z,14.68
2022-09-07T04:18:59.525Z,14.66
2022-09-07T04:21:29.186Z,14.62
2022-09-07T04:23:57.656Z,14.59
2022-09-07T04:26:28.910Z,14.57
2022-09-07T04:29:00.072Z,14.57
2022-09-07T04:31:28.500Z,14.56
2022-09-07T04:33:57.355Z,14.55
2022-09-07T04:36:26.057Z,14.50
2022-09-07T04:39:00.177Z,14.48
2022-09-07T04:41:39.327Z,14.46
2022-09-07T04:44:07.400Z,14.43
2022-09-07T04:46:37.256Z,14.40
2022-09-07T04:49:08.419Z,14.36
2022-09-07T04:51:40.167Z,14.36
2022-09-07T04:54:08.269Z,14.36
2022-09-07T04:56:37.712Z,14.34
2022-09-07T04:59:06.060Z,14.34
2022-09-07T05:01:34.561Z,14.36
2022-09-07T05:04:09.609Z,14.38
2022-09-07T05:06:38.055Z,14.39
2022-09-07T05:09:09.093Z,14.39
2022-09-07T05:11:38.573Z,14.37
2022-09-07T05:14:06.642Z,14.38
2022-09-07T05:16:35.258Z,14.38
2022-09-07T05:19:05.362Z,14.39
2022-09-07T05:21:35.311Z,14.39
2022-09-07T05:24:04.349Z,14.41
2022-09-07T05:26:34.060Z,14.42
2022-09-07T05:31:57.739Z,14.44
2022-09-07T05:37:00.118Z,14.48
2022-09-07T05:39:29.679Z,14.49
2022-09-07T05:41:57.871Z,14.51
2022-09-07T05:44:47.122Z,14.49
2022-09-07T05:47:15.783Z,14.51
2022-09-07T05:49:47.275Z,14.51
2022-09-07T05:52:15.697Z,14.55
2022-09-07T05:54:43.919Z,14.56
2022-09-07T05:57:21.935Z,14.58
2022-09-07T05:59:51.494Z,14.60
2022-09-07T06:02:19.784Z,14.61
2022-09-07T06:04:49.136Z,14.62
2022-09-07T06:07:22.055Z,14.61
2022-09-07T06:12:44.377Z,14.64
2022-09-07T06:15:17.987Z,14.65
2022-09-07T06:17:46.151Z,14.66
2022-09-07T06:20:14.211Z,14.67
2022-09-07T06:22:42.475Z,14.66
2022-09-07T06:25:11.003Z,14.66
2022-09-07T06:27:39.093Z,14.68
2022-09-07T06:30:10.989Z,14.69
2022-09-07T06:35:13.985Z,14.71
2022-09-07T06:37:43.117Z,14.73
2022-09-07T06:40:12.593Z,14.76
2022-09-07T06:42:40.892Z,14.81
2022-09-07T06:45:11.554Z,14.89
2022-09-07T06:47:41.897Z,14.94
2022-09-07T06:50:12.621Z,15.03
2022-09-07T06:55:29.306Z,15.12
2022-09-07T06:57:59.442Z,15.14
2022-09-07T07:00:27.227Z,15.17
2022-09-07T07:02:56.754Z,15.18
2022-09-07T07:05:25.045Z,15.15
2022-09-07T07:07:53.202Z,15.11
2022-09-07T07:10:24.829Z,15.06
2022-09-07T07:12:57.818Z,15.03
2022-09-07T07:15:28.840Z,15.01
2022-09-07T07:18:13.488Z,15.02
2022-09-07T07:20:46.771Z,15.03
2022-09-07T07:23:14.905Z,15.01
2022-09-07T07:25:43.061Z,15.04
2022-09-07T07:31:03.961Z,15.08
2022-09-07T07:33:39.749Z,15.11
2022-09-07T07:36:12.775Z,15.12
2022-09-07T07:44:20.543Z,15.16
2022-09-07T07:46:49.466Z,15.15
2022-09-07T07:49:19.266Z,15.20
2022-09-07T07:54:38.507Z,15.47
2022-09-07T07:57:09.236Z,15.65
2022-09-07T07:59:37.422Z,15.87
2022-09-07T08:02:06.358Z,16.07
2022-09-07T08:04:37.016Z,16.15
2022-09-07T08:07:10.312Z,16.15
2022-09-07T08:09:40.563Z,16.05
2022-09-07T08:12:10.059Z,16.01
2022-09-07T08:14:41.106Z,15.95
2022-09-07T08:17:10.108Z,15.87
2022-09-07T08:19:42.626Z,15.75
2022-09-07T08:22:13.929Z,15.70
2022-09-07T08:24:41.995Z,15.86
2022-09-07T08:27:10.376Z,16.00
2022-09-07T08:29:38.522Z,16.14
2022-09-07T08:32:07.580Z,16.31
2022-09-07T08:34:38.066Z,16.43
2022-09-07T08:37:07.854Z,16.62
2022-09-07T08:39:36.769Z,16.82
2022-09-07T08:42:34.507Z,17.11
2022-09-07T08:45:07.522Z,17.45
2022-09-07T08:47:41.544Z,17.65
2022-09-07T08:50:19.541Z,17.76
2022-09-07T08:52:55.764Z,17.58
2022-09-07T08:55:29.762Z,17.31
2022-09-07T08:58:06.399Z,17.01
2022-09-07T09:00:36.228Z,16.86
2022-09-07T09:06:03.907Z,17.38
2022-09-07T09:08:45.604Z,17.91
2022-09-07T09:11:22.457Z,18.38
2022-09-07T09:13:59.854Z,18.61
2022-09-07T09:16:35.477Z,18.67
2022-09-07T09:19:15.649Z,18.54
2022-09-07T09:21:43.826Z,18.38
2022-09-07T09:24:19.196Z,18.12
2022-09-07T09:26:53.256Z,17.83
2022-09-07T09:29:23.400Z,17.60
2022-09-07T09:31:51.203Z,17.39
2022-09-07T09:34:25.519Z,17.20
2022-09-07T09:36:57.587Z,17.21
2022-09-07T09:39:35.545Z,17.21
2022-09-07T09:42:16.565Z,17.15
2022-09-07T09:44:45.732Z,17.07
2022-09-07T09:47:30.845Z,17.02
2022-09-07T09:50:00.998Z,17.10
2022-09-07T09:52:43.946Z,17.15
2022-09-07T09:55:35.375Z,17.24
2022-09-07T10:03:55.946Z,17.75
2022-09-07T10:06:25.597Z,17.76
2022-09-07T10:08:58.677Z,17.81
2022-09-07T10:14:38.222Z,18.08
2022-09-07T10:17:14.923Z,18.03
2022-09-07T10:19:44.347Z,17.91
2022-09-07T10:22:26.267Z,18.05
2022-09-07T10:24:55.289Z,18.41
2022-09-07T10:27:34.013Z,18.51
2022-09-07T10:30:05.936Z,18.47
2022-09-07T10:32:56.687Z,18.23
2022-09-07T10:35:29.359Z,18.11
2022-09-07T10:38:15.100Z,18.28
2022-09-07T10:40:46.533Z,18.73
2022-09-07T10:43:23.852Z,19.22
2022-09-07T10:49:23.835Z,19.54
2022-09-07T10:52:03.629Z,19.59
2022-09-07T10:54:42.144Z,19.31
2022-09-07T10:57:34.418Z,19.39
2022-09-07T11:00:11.222Z,19.70
2022-09-07T11:05:59.350Z,20.00
2022-09-07T11:09:15.923Z,20.00
2022-09-07T11:14:23.790Z,20.48
2022-09-07T11:16:59.090Z,20.53
2022-09-07T11:19:36.180Z,20.33
2022-09-07T11:22:20.211Z,20.16
2022-09-07T11:27:47.561Z,19.80
2022-09-07T11:30:21.041Z,19.64
2022-09-07T11:33:03.729Z,19.33
2022-09-07T11:35:38.169Z,18.97
2022-09-07T11:38:15.356Z,18.77
2022-09-07T11:40:52.489Z,18.52
2022-09-07T11:43:24.115Z,18.22
2022-09-07T11:45:56.317Z,18.02
2022-09-07T11:48:32.976Z,17.69
2022-09-07T11:51:04.823Z,17.71
2022-09-07T11:53:36.038Z,18.29
2022-09-07T11:56:08.645Z,18.72
2022-09-07T11:58:58.456Z,18.75
2022-09-07T12:01:40.251Z,18.39
2022-09-07T12:04:41.913Z,18.09
2022-09-07T12:07:33.353Z,17.94
2022-09-07T12:10:25.761Z,17.87
2022-09-07T12:13:07.428Z,18.23
2022-09-07T12:15:47.283Z,19.05
2022-09-07T12:18:28.176Z,19.68
2022-09-07T12:20:56.575Z,19.97
2022-09-07T12:23:36.324Z,19.94
2022-09-07T12:26:41.755Z,19.88
2022-09-07T12:29:27.714Z,19.71
2022-09-07T12:31:59.364Z,19.80
2022-09-07T12:35:02.129Z,19.96
2022-09-07T12:37:43.689Z,20.11
2022-09-07T12:40:49.156Z,20.42
2022-09-07T12:43:44.677Z,20.69
2022-09-07T12:46:20.197Z,20.76
2022-09-07T12:48:58.252Z,20.75
2022-09-07T12:54:33.413Z,20.61
2022-09-07T12:57:30.404Z,20.52
2022-09-07T13:00:13.819Z,20.97
2022-09-07T13:03:03.911Z,21.33
2022-09-07T13:05:46.411Z,21.73
2022-09-07T13:08:44.145Z,21.91
2022-09-07T13:11:32.114Z,21.68
2022-09-07T13:14:05.181Z,21.35
2022-09-07T13:19:57.129Z,20.56
2022-09-07T13:23:01.984Z,20.39
2022-09-07T13:26:00.174Z,20.25
2022-09-07T13:28:38.160Z,20.04
2022-09-07T13:31:33.465Z,20.12
2022-09-07T13:34:01.767Z,20.15
2022-09-07T13:36:37.985Z,20.18
2022-09-07T13:39:12.903Z,20.23
2022-09-07T13:41:48.290Z,20.29
2022-09-07T13:44:25.898Z,20.35
2022-09-07T13:47:26.756Z,20.32
2022-09-07T13:50:01.970Z,20.25
2022-09-07T13:52:44.166Z,20.18
2022-09-07T13:55:29.137Z,20.33
2022-09-07T13:58:07.741Z,20.36
2022-09-07T14:00:36.169Z,20.42
2022-09-07T14:03:08.562Z,20.53
2022-09-07T14:05:37.390Z,20.51
2022-09-07T14:08:05.762Z,20.37
2022-09-07T14:10:34.028Z,20.25
2022-09-07T14:13:08.344Z,20.11
2022-09-07T14:15:43.551Z,20.04
2022-09-07T14:18:16.154Z,19.93
2022-09-07T14:20:47.159Z,19.79
2022-09-07T14:23:23.513Z,19.87
2022-09-07T14:26:17.582Z,19.91
2022-09-07T14:28:47.690Z,20.00
2022-09-07T14:31:20.295Z,19.96
2022-09-07T14:33:52.857Z,20.01
2022-09-07T14:36:45.376Z,20.00
2022-09-07T14:39:15.462Z,19.83
2022-09-07T14:41:44.508Z,19.66
2022-09-07T14:44:34.978Z,19.43
2022-09-07T14:47:08.976Z,19.27
2022-09-07T14:49:38.897Z,19.18
2022-09-07T14:52:07.355Z,19.21
2022-09-07T14:54:35.708Z,19.31
2022-09-07T14:57:07.771Z,19.28
2022-09-07T14:59:42.258Z,19.33
2022-09-07T15:02:32.913Z,19.45
2022-09-07T15:05:25.641Z,19.46
2022-09-07T15:07:56.460Z,19.48
2022-09-07T15:10:32.677Z,19.48
2022-09-07T15:13:02.856Z,19.38
2022-09-07T15:15:31.998Z,19.20
2022-09-07T15:18:08.272Z,19.03
2022-09-07T15:20:44.245Z,18.93
2022-09-07T15:23:14.339Z,18.90
2022-09-07T15:25:48.185Z,18.84
2022-09-07T15:34:10.056Z,18.69
2022-09-07T15:36:41.321Z,18.72
2022-09-07T15:39:17.045Z,18.72
2022-09-07T15:41:45.722Z,18.70
2022-09-07T15:44:15.156Z,18.67
2022-09-07T15:47:42.032Z,18.69
2022-09-07T15:49:31.724Z,18.76
2022-09-07T15:52:08.168Z,18.79
2022-09-07T15:54:39.769Z,18.77
2022-09-07T15:59:58.974Z,18.65
2022-09-07T16:05:15.790Z,18.60
2022-09-07T16:10:33.920Z,18.65
2022-09-07T16:13:03.886Z,18.73
2022-09-07T16:15:45.668Z,18.80
2022-09-07T16:18:17.215Z,18.79
2022-09-07T16:20:46.125Z,18.77
2022-09-07T16:23:17.439Z,18.71
2022-09-07T16:25:57.888Z,18.65
2022-09-07T16:28:26.172Z,18.69
2022-09-07T16:30:54.363Z,18.70
2022-09-07T16:33:25.219Z,18.79
2022-09-07T16:35:59.516Z,19.12
2022-09-07T16:38:47.581Z,19.29
2022-09-07T16:41:16.179Z,19.51
2022-09-07T16:43:44.236Z,19.63
2022-09-07T16:46:13.578Z,19.87
2022-09-07T16:48:41.430Z,20.00
2022-09-07T16:51:10.907Z,20.09
2022-09-07T16:53:40.470Z,20.50
2022-09-07T16:56:09.008Z,20.63
2022-09-07T16:58:42.848Z,20.71
2022-09-07T17:01:12.706Z,20.67
2022-09-07T17:03:40.838Z,20.47
2022-09-07T17:06:09.587Z,20.30
2022-09-07T17:08:38.372Z,20.16
2022-09-07T17:11:08.697Z,20.00
2022-09-07T17:13:37.450Z,19.92
2022-09-07T17:16:05.942Z,19.77
2022-09-07T17:21:22.024Z,19.66
2022-09-07T17:23:55.173Z,19.51
2022-09-07T17:26:27.439Z,19.39
2022-09-07T17:28:56.574Z,19.36
2022-09-07T17:34:18.143Z,19.47
2022-09-07T17:36:47.470Z,19.61
2022-09-07T17:39:17.697Z,19.69
2022-09-07T17:41:48.309Z,19.39
2022-09-07T17:44:16.481Z,19.17
2022-09-07T17:46:44.962Z,18.96
2022-09-07T17:49:14.617Z,18.75
2022-09-07T17:51:42.573Z,18.54
2022-09-07T17:54:12.340Z,18.38
2022-09-07T17:56:40.521Z,18.20
2022-09-07T18:01:57.994Z,17.91
2022-09-07T18:04:26.114Z,17.85
2022-09-07T18:06:55.215Z,17.79
2022-09-07T18:09:23.022Z,17.75
2022-09-07T18:11:51.177Z,17.73
2022-09-07T18:14:21.881Z,17.63
2022-09-07T18:16:50.418Z,17.53
2022-09-07T18:19:19.880Z,17.40
2022-09-07T18:21:48.156Z,17.33
2022-09-07T18:24:17.800Z,17.26
2022-09-07T18:26:51.600Z,17.23
2022-09-07T18:29:33.030Z,17.18
2022-09-07T18:32:02.609Z,17.13
2022-09-07T18:34:31.862Z,17.11
2022-09-07T18:37:00.428Z,17.09
2022-09-07T18:39:28.321Z,17.03
2022-09-07T18:41:56.356Z,16.97
2022-09-07T18:47:21.642Z,16.86
2022-09-07T18:49:51.232Z,16.79
2022-09-07T18:55:08.678Z,16.71
2022-09-07T18:57:37.348Z,16.67
2022-09-07T19:00:08.008Z,16.65
2022-09-07T19:02:36.018Z,16.61
2022-09-07T19:08:10.800Z,16.55
2022-09-07T19:10:39.427Z,16.52
2022-09-07T19:13:23.777Z,16.46
2022-09-07T19:16:04.108Z,16.43
2022-09-07T19:18:32.014Z,16.43
2022-09-07T19:21:03.279Z,16.45
2022-09-07T19:23:31.079Z,16.46
2022-09-07T19:25:59.349Z,16.47
2022-09-07T19:28:32.927Z,16.45
2022-09-07T19:31:04.804Z,16.44
2022-09-07T19:33:36.165Z,16.40
2022-09-07T19:36:07.089Z,16.38
2022-09-07T19:38:56.074Z,16.38
2022-09-07T19:41:25.180Z,16.38
2022-09-07T19:43:53.253Z,16.33
2022-09-07T19:46:25.061Z,16.29
2022-09-07T19:48:53.029Z,16.22
2022-09-07T19:51:21.071Z,16.15
2022-09-07T19:53:49.075Z,16.08
2022-09-07T19:56:18.721Z,16.07
2022-09-07T19:58:48.681Z,16.07
2022-09-07T20:01:17.998Z,16.08
2022-09-07T20:03:50.335Z,16.09
2022-09-07T20:06:20.147Z,16.10
2022-09-07T20:08:47.969Z,16.10
2022-09-07T20:11:16.992Z,16.07
2022-09-07T20:13:45.093Z,16.03
2022-09-07T20:16:14.694Z,15.99
2022-09-07T20:18:42.594Z,15.96
2022-09-07T20:21:14.088Z,15.93
2022-09-07T20:23:42.293Z,15.88
2022-09-07T20:26:11.032Z,15.87
2022-09-07T20:28:39.314Z,15.88
2022-09-07T20:31:08.394Z,15.91
2022-09-07T20:33:36.256Z,15.93
2022-09-07T20:36:04.654Z,15.97
2022-09-07T20:38:33.932Z,16.00
2022-09-07T20:41:03.504Z,16.00
2022-09-07T20:43:32.290Z,15.99
2022-09-07T20:46:06.887Z,16.01
2022-09-07T20:48:34.636Z,16.01
2022-09-07T20:51:03.995Z,16.00
2022-09-07T20:53:33.559Z,16.04
2022-09-07T20:56:02.930Z,16.09
2022-09-07T20:58:33.862Z,16.03
2022-09-07T21:01:01.685Z,15.94
2022-09-07T21:03:29.868Z,15.88
2022-09-07T21:06:02.293Z,15.80
2022-09-07T21:08:30.143Z,15.74
2022-09-07T21:10:59.353Z,15.67
2022-09-07T21:13:27.128Z,15.62
2022-09-07T21:15:55.035Z,15.58
2022-09-07T21:18:22.899Z,15.57
2022-09-07T21:21:18.513Z,15.57
2022-09-07T21:23:44.249Z,15.56
2022-09-07T21:26:13.842Z,15.54
2022-09-07T21:28:41.589Z,15.51
2022-09-07T21:31:10.135Z,15.52
2022-09-07T21:33:38.494Z,15.55
2022-09-07T21:36:06.977Z,15.55
2022-09-07T21:38:35.491Z,15.54
2022-09-07T21:41:06.592Z,15.55
2022-09-07T21:43:36.198Z,15.59
2022-09-07T21:46:08.260Z,15.63
2022-09-07T21:48:36.222Z,15.67
2022-09-07T21:51:04.672Z,15.64
2022-09-07T21:53:32.910Z,15.62
2022-09-07T21:56:01.560Z,15.60
2022-09-07T21:58:29.919Z,15.59
2022-09-07T22:01:00.779Z,15.54
2022-09-07T22:03:28.602Z,15.52
2022-09-07T22:05:56.442Z,15.55
2022-09-07T22:08:24.348Z,15.58
2022-09-07T22:10:52.089Z,15.54
2022-09-07T22:13:19.817Z,15.47
2022-09-07T22:15:49.205Z,15.42
2022-09-07T22:18:18.344Z,15.42
2022-09-07T22:20:46.073Z,15.41
2022-09-07T22:23:13.851Z,15.39
2022-09-07T22:25:41.590Z,15.36
2022-09-07T22:28:09.353Z,15.35
2022-09-07T22:30:37.155Z,15.37
2022-09-07T22:33:05.013Z,15.44
2022-09-07T22:35:34.230Z,15.48
2022-09-07T22:38:01.979Z,15.49
2022-09-07T22:40:29.730Z,15.48
2022-09-07T22:42:57.415Z,15.51
2022-09-07T22:45:25.174Z,15.56
2022-09-07T22:47:52.910Z,15.59
2022-09-07T22:50:20.974Z,15.63
2022-09-07T22:52:51.396Z,15.66
2022-09-07T22:55:19.141Z,15.71
2022-09-07T22:57:47.500Z,15.76
2022-09-07T23:00:15.569Z,15.80
2022-09-07T23:02:43.277Z,15.80
2022-09-07T23:05:11.427Z,15.78
2022-09-07T23:07:39.822Z,15.77
2022-09-07T23:10:09.561Z,15.70
2022-09-07T23:12:37.269Z,15.60
2022-09-07T23:15:05.243Z,15.53
2022-09-07T23:17:32.982Z,15.46
2022-09-07T23:20:00.704Z,15.42
2022-09-07T23:22:28.421Z,15.38
2022-09-07T23:24:56.175Z,15.34
2022-09-07T23:27:25.679Z,15.30
2022-09-07T23:29:53.442Z,15.24
2022-09-07T23:32:21.217Z,15.22
2022-09-07T23:34:48.987Z,15.21
2022-09-07T23:37:16.742Z,15.22
2022-09-07T23:39:44.697Z,15.29
2022-09-07T23:42:12.537Z,15.37
2022-09-07T23:44:41.675Z,15.43
2022-09-07T23:47:09.395Z,15.49
2022-09-07T23:49:37.131Z,15.54
2022-09-07T23:52:04.892Z,15.62
2022-09-07T23:54:32.660Z,15.66
2022-09-07T23:57:00.416Z,15.68
2022-09-07T23:59:28.159Z,15.72
